Flight Track Log - Related Links

Times and Time Zones

All times are in EDT time to prevent confusion due to time zone crossing. See the WWI31 flight status page for this flight to view local times or setup timezone preferences in your user account.

Time Position Orientation Groundspeed Altitude Reporting Facility
EDT Latitude Longitude Course Direction KTS MPH feet Rate Location/Type
Wed 08:17:06 PM 44.8433 -68.8861 282° West 180 207 3,100  Level Boston Center
Wed 08:22:00 PM 44.9687 -69.7405 282° West  Level FlightAware Approximate
Wed 08:23:04 PM 44.9468 -69.4720 264° West 160 184 19,700  Level FlightAware ADS-B (KBGR)
Wed 08:23:35 PM 44.9609 -69.5553 264° West 160 184 20,900 3,615 Climbing FlightAware ADS-B (KBGR)
Wed 08:24:22 PM 44.9691 -69.6042 264° West 160 184 24,400 2,692 Climbing FlightAware ADS-B (KBGR)
Wed 08:24:53 PM 44.9830 -69.6868 264° West 160 184 24,400 955 Level FlightAware ADS-B (KBGR)
Wed 08:25:50 PM 44.9984 -69.7787 264° West 160 184 25,800 1,143 Climbing FlightAware ADS-B (KBGR)
Wed 08:38:32 PM 45.2400 -71.3366 284° West 703 809 40,000 1,021 Climbing FlightAware ADS-B
Wed 08:39:50 PM 45.2734 -71.5347 284° West 339 390 40,100 -8,667 Climbing FlightAware ADS-B
Wed 08:40:20 PM 45.2865 -71.6132 283° West 330 380 24,400 -15,194 Descending FlightAware ADS-B
Wed 08:40:52 PM 45.2968 -71.6752 283° West 537 618 24,400 1,125 Level FlightAware ADS-B
Wed 08:55:44 PM 45.2135 -73.9059 266° West 230 265 1,164 Descending FlightAware ADS-B
Wed 08:56:04 PM 45.2108 -73.9545 266° West 230 265 62,195 Level FlightAware ADS-B
Wed 08:56:25 PM 45.2084 -73.9953 265° West 475 547 42,500 49,038 Climbing FlightAware ADS-B
Wed 08:56:56 PM 45.2034 -74.0843 265° West 502 578 42,500 74 Level FlightAware ADS-B
Wed 08:57:16 PM 45.2010 -74.1223 265° West 518 596 120 Descending FlightAware ADS-B
Wed 08:57:46 PM 45.1967 -74.1960 264° West 560 644 42,600 36,857 Climbing FlightAware ADS-B
Wed 08:58:26 PM 45.1924 -74.2697 265° West 457 526 43,000 293 Climbing FlightAware ADS-B
Wed 08:59:08 PM 45.1888 -74.3304 85° East 91 105 43,000  Level FlightAware ADS-B
Wed 08:59:29 PM 45.1813 -74.4570 265° West 246 283  Descending FlightAware ADS-B
Wed 09:00:00 PM 45.1759 -74.5466 265° West 442 509 6,582 Level FlightAware ADS-B
Wed 09:00:20 PM 45.1732 -74.5924 265° West 404 465 7,147 Level FlightAware ADS-B
Wed 09:00:38 PM 45.1706 -74.6358 265° West 647 745 7,566 Level FlightAware ADS-B
Wed 09:06:01 PM 45.1160 -75.4538 264° West 425 489 43,000 7,288 Climbing FlightAware ADS-B
Wed 09:06:32 PM 45.1099 -75.5400 264° West 387 445 43,000  Level FlightAware ADS-B
Wed 09:07:02 PM 45.1044 -75.6179 264° West 493 567 43,000  Level FlightAware ADS-B
Wed 09:07:24 PM 45.1003 -75.6730 264° West 691 795 43,000 300 Level FlightAware ADS-B
Wed 09:08:02 PM 45.0925 -75.7796 264° West 331 381 43,300 261 Climbing FlightAware ADS-B
Wed 09:08:33 PM 45.0903 -75.8084 84° East 562 647 43,300  Level FlightAware ADS-B
Wed 09:09:03 PM 45.0810 -75.9333 264° West 522 601 43,300  Level FlightAware ADS-B
Wed 09:09:35 PM 45.0770 -75.9875 264° West 551 634 43,300  Level FlightAware ADS-B
Wed 09:09:44 PM 45.0810 -75.9333 84° East 551 634 43,300 -140 Level FlightAware ADS-B
Wed 09:11:44 PM 45.0551 -76.2736 264° West 309 356 43,000 -78 Descending FlightAware ADS-B
Wed 09:13:36 PM 45.0281 -76.6149 264° West 419 482 43,000  Level FlightAware ADS-B
Wed 09:14:19 PM 45.0182 -76.7364 263° West 149 171 43,000  Level FlightAware ADS-B
Wed 09:14:51 PM 45.0121 -76.8106 263° West 473 544 43,000  Level FlightAware ADS-B
Wed 09:15:46 PM 45.0003 -76.9522 263° West 307 353 43,000  Level FlightAware ADS-B
Wed 09:16:16 PM 44.9946 -77.0205 263° West 423 487 43,000  Level FlightAware ADS-B
Wed 09:16:56 PM 44.9876 -77.1036 263° West 425 489 43,000 109 Level FlightAware ADS-B
Wed 09:18:06 PM 44.9722 -77.2827 263° West 433 498 43,200  Climbing FlightAware ADS-B
Wed 09:18:26 PM 44.9696 -77.3124 360° North 333 383 43,000 -122 Descending FlightAware ADS-B
Wed 09:18:55 PM 44.9609 -77.4107 263° West 333 383 43,100 88 Climbing FlightAware ADS-B
Wed 09:19:34 PM 44.9526 -77.5044 263° West 426 490 43,100  Level FlightAware ADS-B
Wed 09:22:37 PM 44.9155 -77.9113 263° West 298 343 43,100 -22 Level FlightAware ADS-B
Wed 09:24:02 PM 44.9128 -77.9410 82° East 397 457 43,000 -50 Descending FlightAware ADS-B
Wed 09:24:38 PM 44.8500 -78.2167 82° East 380 437 43,000  Level Toronto Center
Wed 09:31:06 PM 44.7871 -79.2061 82° East 43,000  Level FlightAware ADS-B (CYYZ)
Wed 09:33:33 PM 44.7485 -79.5699 262° West 43,000  Level FlightAware ADS-B (EPLB / LUZ)
Wed 09:34:11 PM 44.7385 -79.6634 262° West  Descending FlightAware ADS-B (EPLB / LUZ)
Wed 09:34:50 PM 44.7272 -79.7666 262° West 389 448 43,000 46,909 Climbing FlightAware ADS-B (CYYZ)
Wed 09:35:06 PM 44.7231 -79.8042 261° West 388 447 43,000  Level FlightAware ADS-B (CYYZ)
Wed 09:35:39 PM 44.7150 -79.8783 261° West 391 450 43,000  Level FlightAware ADS-B (EPLB / LUZ)
Wed 09:35:59 PM 44.7097 -79.9257 261° West 369 425  Descending FlightAware ADS-B (EPLB / LUZ)
Wed 09:36:18 PM 44.7044 -79.9726 261° West 390 449 30,714 Level FlightAware ADS-B (EPLB / LUZ)
Wed 09:36:43 PM 44.6965 -80.0416 261° West 371 427 39,692 Level FlightAware ADS-B (EPLB / LUZ)
Wed 09:37:23 PM 44.6852 -80.1392 261° West 369 425 43,000 53,750 Climbing FlightAware ADS-B (EPLB / LUZ)
Wed 09:37:31 PM 44.6831 -80.1566 261° West 372 428 43,000  Level FlightAware ADS-B (CYYZ)
Wed 09:37:45 PM 44.6790 -80.1933 261° West 373 429 43,000  Level FlightAware ADS-B (CYYZ)
Wed 09:38:07 PM 44.6730 -80.2445 261° West 285 328  Descending FlightAware ADS-B (EPLB / LUZ)
Wed 09:38:41 PM 44.6635 -80.3246 261° West 374 430 43,000 58,636 Climbing FlightAware ADS-B (CYYZ)
Wed 09:38:51 PM 44.6606 -80.3492 261° West 270 311 43,000  Level FlightAware ADS-B (EPLB / LUZ)
Wed 09:39:30 PM 44.6495 -80.4436 261° West 385 443 43,000  Level FlightAware ADS-B (CYYZ)
Wed 09:39:31 PM 44.6527 -80.4168 261° West 395 455 43,000  Level FlightAware ADS-B (EPLB / LUZ)
Wed 09:41:10 PM 44.6204 -80.6838 260° West 385 443 43,000  Level FlightAware ADS-B (CYYZ)
Wed 09:42:35 PM 44.5949 -80.8887 260° West 374 430 43,000  Level FlightAware ADS-B (CYYZ)
Wed 09:43:44 PM 44.5736 -81.0558 360° North 377 434 43,000  Level FlightAware ADS-B (CYYZ)
Wed 09:44:09 PM 44.5657 -81.1174 260° West 332 382 43,000  Level FlightAware ADS-B (EPLB / LUZ)
Wed 09:44:16 PM 44.5641 -81.1296 260° West 376 433 43,000  Level FlightAware ADS-B (CYYZ)
Wed 09:44:50 PM 44.5531 -81.2158 260° West 419 482 43,000  Level FlightAware ADS-B (EPLB / LUZ)
Wed 09:45:30 PM 44.5483 -81.2529 259° West 470 541 43,000  Level FlightAware ADS-B (EPLB / LUZ)
Wed 09:46:19 PM 44.5296 -81.3982 260° West 278 320  Descending FlightAware ADS-B (EPLB / LUZ)
Wed 09:46:57 PM 44.5135 -81.5220 260° West 236 272 43,000 31,852 Climbing FlightAware ADS-B (EPLB / LUZ)
Wed 09:47:40 PM 44.5023 -81.6085 260° West 428 493 43,000  Level FlightAware ADS-B (EPLB / LUZ)
Wed 09:48:38 PM 44.4667 -81.7333 260° West 380 437 43,000  Level Toronto Center
Wed 09:49:38 PM 44.4500 -81.9000 262° West 380 437 43,000  Level Toronto Center
Wed 09:50:38 PM 44.4167 -82.0333 251° West 390 449 43,000  Level Toronto Center
Wed 09:51:38 PM 44.4000 -82.2000 262° West 390 449 43,000  Level Toronto Center
Wed 09:52:38 PM 44.3833 -82.3333 260° West 390 449 43,000  Level Toronto Center
Wed 09:53:11 PM 44.3911 -82.4203 277° West 388 447 43,000  Level Minneapolis Center
Wed 09:54:12 PM 44.3719 -82.5689 260° West 388 447 43,000  Level Minneapolis Center
Wed 09:55:14 PM 44.3483 -82.7192 258° West 391 450 43,000  Level Minneapolis Center
Wed 09:56:15 PM 44.3286 -82.8686 260° West 392 451 43,000  Level Minneapolis Center
Wed 09:57:16 PM 44.3044 -83.0494 259° West 393 452 43,000  Level Minneapolis Center
Wed 09:58:18 PM 44.2814 -83.2017 258° West 399 459 43,000  Level Minneapolis Center
Wed 09:59:19 PM 44.2592 -83.3533 258° West 399 459 43,000  Level Minneapolis Center
Wed 10:00:21 PM 44.2392 -83.5039 260° West 399 459 43,000  Level Minneapolis Center
Wed 10:01:23 PM 44.2172 -83.6531 258° West 398 458 43,000  Level Minneapolis Center
Wed 10:02:24 PM 44.1944 -83.8033 258° West 398 458 43,000  Level Minneapolis Center
Wed 10:03:26 PM 44.1717 -83.9525 258° West 398 458 43,000  Level Minneapolis Center
Wed 10:04:27 PM 44.1486 -84.1028 258° West 398 458 43,000  Level Minneapolis Center
Wed 10:05:28 PM 44.1261 -84.2533 258° West 398 458 43,000  Level Minneapolis Center
Wed 10:06:30 PM 44.1044 -84.4328 261° West 394 453 43,000  Level Minneapolis Center
Wed 10:07:31 PM 44.0933 -84.5828 264° West 394 453 43,000  Level Minneapolis Center
Wed 10:08:32 PM 44.0825 -84.7342 264° West 394 453 43,000  Level Minneapolis Center
Wed 10:09:34 PM 44.0708 -84.8869 264° West 394 453 43,000 55 Level Minneapolis Center
Wed 10:15:20 PM 44.0013 -85.7919 264° West 43,200 63 Climbing FlightAware ADS-B
Wed 10:17:33 PM 43.9742 -86.1121 263° West 378 435 43,500 94 Climbing FlightAware ADS-B
Wed 10:18:31 PM 43.9833 -86.0053 83° East 175 201 43,500  Level FlightAware ADS-B
Wed 10:19:52 PM 43.9410 -86.4773 263° West 441 507 43,500 -183 Level FlightAware ADS-B
Wed 10:20:42 PM 43.9292 -86.6027 262° West 451 519 43,100  Descending FlightAware ADS-B
Wed 10:21:23 PM 43.9206 -86.6940 263° West 601 692 43,500  Climbing FlightAware ADS-B
Wed 10:22:03 PM 43.9074 -86.8304 262° West 565 650 43,100 -429 Descending FlightAware ADS-B
Wed 10:22:33 PM 43.9005 -86.9015 262° West 377 434 43,000 -87 Descending FlightAware ADS-B
Wed 10:23:12 PM 43.8904 -87.0049 262° West 459 528 43,000  Level FlightAware ADS-B
Wed 10:23:43 PM 43.8820 -87.0897 262° West 414 476 43,000  Level FlightAware ADS-B
Wed 10:24:13 PM 43.8740 -87.1688 262° West 469 540 43,000  Level FlightAware ADS-B
Wed 10:24:43 PM 43.8668 -87.2416 262° West 469 540 43,000 500 Level FlightAware ADS-B
Wed 10:25:13 PM 43.8600 -87.3094 261° West 393 452 43,500  Climbing FlightAware ADS-B
Wed 10:25:43 PM 43.8507 -87.4026 262° West 364 419 43,000  Descending FlightAware ADS-B
Wed 10:26:13 PM 43.8443 -87.4644 261° West 552 635 43,500  Climbing FlightAware ADS-B
Wed 10:26:52 PM 43.8348 -87.5599 262° West 492 566 43,000 -429 Descending FlightAware ADS-B
Wed 10:27:23 PM 43.8255 -87.6503 262° West 345 397 43,000 492 Level FlightAware ADS-B
Wed 10:27:53 PM 43.8179 -87.7231 262° West 446 513 43,500 429 Climbing FlightAware ADS-B
Wed 10:28:33 PM 43.8064 -87.8345 262° West 463 533 43,500 -333 Level FlightAware ADS-B
Wed 10:29:23 PM 43.7934 -87.9598 262° West 467 537 43,000 -375 Descending FlightAware ADS-B
Wed 10:29:53 PM 43.7846 -88.0431 262° West 368 423 43,000 750 Level FlightAware ADS-B
Wed 10:30:03 PM 43.7843 -88.0462 261° West 510 587 43,500  Climbing FlightAware ADS-B
Wed 10:30:33 PM 43.7745 -88.1380 261° West 654 753 43,000 -500 Descending FlightAware ADS-B
Wed 10:31:03 PM 43.7664 -88.2141 262° West 427 491 43,000 273 Level FlightAware ADS-B
Wed 10:31:22 PM 43.7599 -88.2745 262° West 306 352 375 Descending FlightAware ADS-B
Wed 10:31:43 PM 43.7552 -88.3169 261° West 484 557 42,787 Level FlightAware ADS-B
Wed 10:32:23 PM 43.7433 -88.4279 262° West 544 626 43,500 21,750 Climbing FlightAware ADS-B
Wed 10:33:02 PM 43.7391 -88.4647 360° North 290 334  Descending FlightAware ADS-B
Wed 10:33:43 PM 43.7195 -88.6422 261° West 435 501 43,500 16,624 Climbing FlightAware ADS-B
Wed 10:34:13 PM 43.7127 -88.7043 261° West 319 367  Descending FlightAware ADS-B
Wed 10:35:39 PM 43.6866 -88.9352 261° West 473 544 43,500 16,313 Climbing FlightAware ADS-B (KMSN)
Wed 10:36:00 PM 43.6830 -88.9663 261° West 483 556  Descending FlightAware ADS-B (KMSN)
Wed 10:36:23 PM 43.6756 -89.0308 261° West 420 483 49,245 Level FlightAware ADS-B
Wed 10:36:41 PM 43.6684 -89.0935 261° West 403 464 87,000 Level FlightAware ADS-B (KMSN)
Wed 10:36:53 PM 43.6663 -89.1114 81° East 416 479 43,500 163,125 Climbing FlightAware ADS-B
Wed 10:36:57 PM 43.6652 -89.1216 261° West 416 479 43,500  Level FlightAware ADS-B (KMSN)
Wed 10:37:26 PM 43.6548 -89.2102 261° West 427 491  Descending FlightAware ADS-B (KMSN)
Wed 10:37:53 PM 43.6478 -89.2704 261° West 550 633 43,500 42,097 Climbing FlightAware ADS-B
Wed 10:38:12 PM 43.6411 -89.3278 261° West 407 468  Descending FlightAware ADS-B
Wed 10:38:28 PM 43.6463 -89.2833 81° East 411 473 43,500 44,237 Climbing FlightAware ADS-B (KMSN)
Wed 10:39:11 PM 43.6248 -89.4660 261° West 556 640 43,500  Level FlightAware ADS-B (KMSN)
Wed 10:39:26 PM 43.6212 -89.4948 81° East 531 611 43,500  Level FlightAware ADS-B (KMSN)
Wed 10:39:33 PM 43.6198 -89.5077 261° West 460 529  Descending FlightAware ADS-B
Wed 10:39:38 PM 43.6212 -89.4948 81° East 460 529 43,500 66,923 Climbing FlightAware ADS-B (KMSN)
Wed 10:40:12 PM 43.6062 -89.6198 81° East 500 575 43,500  Level FlightAware ADS-B
Wed 10:40:25 PM 43.6051 -89.6301 261° West 730 840 43,500  Level FlightAware ADS-B (KMSN)
Wed 10:42:25 PM 43.5778 -89.8536 80° East 43,500  Level FlightAware ADS-B
Wed 10:43:08 PM 43.5567 -90.0237 260° West 43,500  Level FlightAware ADS-B
Wed 10:43:33 PM 43.5403 -90.1530 260° West 917 1055 43,500  Level FlightAware ADS-B
Wed 10:43:52 PM 43.5341 -90.2002 260° West 917 1055  Descending FlightAware ADS-B
Wed 10:44:03 PM 43.5302 -90.2311 260° West 917 1055 18,643 Level FlightAware ADS-B
Wed 10:44:23 PM 43.5239 -90.2812 260° West 821 945 20,233 Level FlightAware ADS-B
Wed 10:44:43 PM 43.5172 -90.3334 260° West 23,945 Level FlightAware ADS-B
Wed 10:45:03 PM 43.5135 -90.3622 260° West 396 456 29,326 Level FlightAware ADS-B
Wed 10:45:32 PM 43.5027 -90.4489 260° West 400 460 37,826 Level FlightAware ADS-B
Wed 10:45:42 PM 43.5021 -90.4540 260° West 400 460 65,250 Level FlightAware ADS-B
Wed 10:46:12 PM 43.4933 -90.5222 260° West 292 336 43,500 8,131 Climbing FlightAware ADS-B
Wed 10:48:22 PM 43.4614 -90.7740 260° West 218 251  Descending FlightAware ADS-B
Wed 10:51:03 PM 43.3915 -91.3055 260° West 369 425 43,500 13,050 Climbing FlightAware ADS-B
Wed 10:51:23 PM 43.3843 -91.3610 260° West 259 298  Descending FlightAware ADS-B
Wed 10:51:42 PM 43.3763 -91.4214 260° West 259 298 43,500 42,097 Climbing FlightAware ADS-B
Wed 10:52:25 PM 43.3678 -91.4825 80° East 403 464 43,500  Level FlightAware ADS-B
Wed 10:53:23 PM 43.3417 -91.6703 259° West  Descending FlightAware ADS-B
Wed 10:53:43 PM 43.3333 -91.7288 258° West 93 107 43,500 Level FlightAware ADS-B
Wed 10:54:01 PM 43.3257 -91.7822 259° West 93 107 65,250 Level FlightAware ADS-B
Wed 10:54:23 PM 43.3168 -91.8438 259° West 93 107 43,500 9,366 Climbing FlightAware ADS-B
Wed 10:56:00 PM 43.3107 -91.8868 259° West 43,500 294 Level FlightAware ADS-B
Wed 10:57:03 PM 43.2604 -92.2320 259° West 42,900 464 Descending FlightAware ADS-B
Wed 10:58:48 PM 43.2110 -92.5545 258° West 440 506 44,800 488 Climbing FlightAware ADS-B
Wed 11:01:21 PM 43.1481 -92.9497 258° West 338 389 45,000 66 Climbing FlightAware ADS-B
Wed 11:01:51 PM 43.1347 -93.0324 257° West 338 389 45,000 -1,435 Level FlightAware ADS-B
Wed 11:02:53 PM 43.1119 -93.1739 258° West 424 488 42,800  Descending FlightAware ADS-B
Wed 11:03:37 PM 43.0918 -93.2969 257° West 406 467 45,000 1,784 Climbing FlightAware ADS-B
Wed 11:04:07 PM 43.0774 -93.3856 258° West 391 450 45,000  Level FlightAware ADS-B
Wed 11:04:38 PM 43.0647 -93.4638 257° West 449 517 45,000  Level FlightAware ADS-B
Wed 11:05:08 PM 43.0521 -93.5397 257° West 454 522 45,000 -2,164 Level FlightAware ADS-B
Wed 11:05:39 PM 43.0424 -93.5994 256° West 386 444 42,800 -2,164 Descending FlightAware ADS-B
Wed 11:06:09 PM 43.0290 -93.6804 257° West 378 435 42,800 -100 Level FlightAware ADS-B
Wed 11:06:39 PM 43.0106 -93.7920 257° West 478 550 42,700 2,164 Descending FlightAware ADS-B
Wed 11:07:10 PM 42.9957 -93.8821 257° West 315 362 45,000  Climbing FlightAware ADS-B
Wed 11:07:41 PM 42.9824 -93.9616 257° West 448 516 42,700 -2,262 Descending FlightAware ADS-B
Wed 11:08:08 PM 42.9692 -94.0412 1000° North 45,000  Climbing FlightAware ADS-B
Wed 11:08:11 PM 42.9684 -94.0466 257° West 537 618 42,700 -4,182 Descending FlightAware ADS-B
Wed 11:08:41 PM 42.9550 -94.1262 257° West 442 509 42,700 3,286 Level FlightAware ADS-B
Wed 11:08:53 PM 42.9491 -94.1613 1000° North 457 526 45,000 4,600 Climbing FlightAware ADS-B
Wed 11:09:11 PM 42.9440 -94.1915 257° West 351 404 45,000  Level FlightAware ADS-B
Wed 11:09:27 PM 42.9339 -94.2517 1000° North 441 507 45,000  Level FlightAware ADS-B
Wed 11:09:41 PM 42.9302 -94.2730 257° West 328 377 45,000  Level FlightAware ADS-B
Wed 11:10:04 PM 42.9170 -94.3516 1000° North 434 499 45,000 -3,067 Level FlightAware ADS-B
Wed 11:10:26 PM 42.9079 -94.4055 257° West 433 498 42,700  Descending FlightAware ADS-B
Wed 11:10:35 PM 42.9028 -94.4354 1000° North 433 498 45,000  Climbing FlightAware ADS-B
Wed 11:10:56 PM 42.8942 -94.4868 257° West 440 506 42,700  Descending FlightAware ADS-B
Wed 11:11:05 PM 42.8894 -94.5138 1000° North 448 516 45,000 3,450 Climbing FlightAware ADS-B
Wed 11:11:36 PM 42.8752 -94.5978 1000° North 412 474 45,000  Level FlightAware ADS-B
Wed 11:11:41 PM 42.8755 -94.5952 257° West 406 467 45,000  Level FlightAware ADS-B
Wed 11:12:06 PM 42.8614 -94.6769 1000° North 551 634 45,000  Level FlightAware ADS-B
Wed 11:12:11 PM 42.8643 -94.6603 257° West 429 494 45,000  Level FlightAware ADS-B
Wed 11:12:36 PM 42.8472 -94.7597 1000° North 421 484 45,000 -4,452 Level FlightAware ADS-B
Wed 11:12:42 PM 42.8458 -94.7679 257° West 391 450 42,700  Descending FlightAware ADS-B
Wed 11:13:06 PM 42.8328 -94.8431 1000° North 374 430 45,000 4,452 Climbing FlightAware ADS-B
Wed 11:13:13 PM 42.8303 -94.8568 257° West 384 442 45,000  Level FlightAware ADS-B
Wed 11:13:43 PM 42.8152 -94.9432 1000° North 449 517 45,000 -2,400 Level FlightAware ADS-B
Wed 11:14:13 PM 42.8015 -95.0213 257° West 516 594 42,600  Descending FlightAware ADS-B
Wed 11:14:45 PM 42.7859 -95.1104 256° West 444 511 45,000 4,235 Climbing FlightAware ADS-B
Wed 11:14:47 PM 42.7840 -95.1214 1000° North 466 536 45,000  Level FlightAware ADS-B
Wed 11:15:17 PM 42.7692 -95.2045 1000° North 429 494 45,000  Level FlightAware ADS-B
Wed 11:15:29 PM 42.7644 -95.2317 256° West 456 525 45,000  Level FlightAware ADS-B
Wed 11:15:48 PM 42.7547 -95.2875 1000° North 427 491 45,000  Level FlightAware ADS-B
Wed 11:16:00 PM 42.7507 -95.3093 256° West 529 609 45,000  Level FlightAware ADS-B
Wed 11:16:18 PM 42.7399 -95.3706 1000° North 456 525 45,000  Level FlightAware ADS-B
Wed 11:16:49 PM 42.7250 -95.4533 1000° North 464 534 45,000  Level FlightAware ADS-B
Wed 11:17:20 PM 42.7095 -95.5393 1000° North 473 544 45,000  Level FlightAware ADS-B
Wed 11:17:50 PM 42.6944 -95.6228 1000° North 562 647 45,000  Level FlightAware ADS-B
Wed 11:18:21 PM 42.6793 -95.7062 1000° North 455 524 45,000  Level FlightAware ADS-B
Wed 11:18:30 PM 42.6769 -95.7199 256° West 348 400 45,000  Level FlightAware ADS-B
Wed 11:18:52 PM 42.6637 -95.7922 1000° North 588 677 45,000  Level FlightAware ADS-B
Wed 11:19:22 PM 42.6491 -95.8721 1000° North 512 589 45,000  Level FlightAware ADS-B
Wed 11:19:53 PM 42.6333 -95.9577 1000° North 468 539 45,000  Level FlightAware ADS-B
Wed 11:20:23 PM 42.6185 -96.0382 1000° North 512 589 45,000  Level FlightAware ADS-B
Wed 11:20:54 PM 42.6026 -96.1242 1000° North 613 705 45,000  Level FlightAware ADS-B
Wed 11:21:24 PM 42.5871 -96.2070 1000° North 477 549 45,000  Level FlightAware ADS-B
Wed 11:21:54 PM 42.5717 -96.2900 1000° North 445 512 45,000  Level FlightAware ADS-B
Wed 11:22:25 PM 42.5557 -96.3758 1000° North 504 580 45,000  Level FlightAware ADS-B
Wed 11:22:56 PM 42.5404 -96.4562 1000° North 457 526 45,000  Level FlightAware ADS-B
Wed 11:23:26 PM 42.5241 -96.5420 1000° North 471 542 45,000  Level FlightAware ADS-B
Wed 11:24:23 PM 42.4949 -96.6966 1000° North 412 474 45,000  Level FlightAware ADS-B
Wed 11:24:54 PM 42.4791 -96.7796 1000° North 602 693 45,000  Level FlightAware ADS-B
Wed 11:25:25 PM 42.4627 -96.8653 1000° North 573 659 45,000  Level FlightAware ADS-B
Wed 11:25:57 PM 42.4458 -96.9530 1000° North 573 659 45,000  Level FlightAware ADS-B
Wed 11:26:27 PM 42.4304 -97.0332 1000° North 513 590 45,000  Level FlightAware ADS-B
Wed 11:26:58 PM 42.4137 -97.1190 1000° North 409 471 45,000  Level FlightAware ADS-B
Wed 11:27:28 PM 42.3976 -97.2017 1000° North 394 453 45,000  Level FlightAware ADS-B
Wed 11:28:00 PM 42.3811 -97.2867 1000° North 457 526 45,000  Level FlightAware ADS-B
Wed 11:28:30 PM 42.3650 -97.3681 1000° North 385 443 45,000  Level FlightAware ADS-B
Wed 11:29:00 PM 42.3489 -97.4496 1000° North 546 628 45,000  Level FlightAware ADS-B
Wed 11:29:30 PM 42.3329 -97.5313 1000° North 451 519 45,000  Level FlightAware ADS-B
Wed 11:30:01 PM 42.3169 -97.6132 1000° North 480 552 45,000  Level FlightAware ADS-B
Wed 11:30:31 PM 42.3009 -97.6951 1000° North 537 618 45,000  Level FlightAware ADS-B
Wed 11:31:02 PM 42.2847 -97.7766 1000° North 489 563 45,000  Level FlightAware ADS-B
Wed 11:31:33 PM 42.2678 -97.8616 1000° North 476 548 45,000  Level FlightAware ADS-B
Wed 11:32:22 PM 42.2419 -97.9929 1000° North 591 680 45,000  Level FlightAware ADS-B
Wed 11:32:52 PM 42.2258 -98.0745 1000° North 562 647 45,000  Level FlightAware ADS-B
Wed 11:33:23 PM 42.2093 -98.1573 1000° North 633 728 45,000  Level FlightAware ADS-B
Wed 11:33:57 PM 42.1918 -98.2458 1000° North 519 597 45,000  Level FlightAware ADS-B
Wed 11:34:27 PM 42.1760 -98.3258 1000° North 445 512 45,000  Level FlightAware ADS-B
Wed 11:34:58 PM 42.1600 -98.4052 1000° North 379 436 45,000  Level FlightAware ADS-B
Wed 11:35:29 PM 42.1437 -98.4861 1000° North 585 673 45,000  Level FlightAware ADS-B
Wed 11:35:59 PM 42.1279 -98.5644 1000° North 486 559 45,000  Level FlightAware ADS-B
Wed 11:36:44 PM 42.1046 -98.6777 1000° North 434 499 45,000  Level FlightAware ADS-B
Wed 11:37:30 PM 42.0795 -98.7970 1000° North 468 539 45,000  Level FlightAware ADS-B
Wed 11:38:01 PM 42.0630 -98.8754 1000° North 439 505 45,000  Level FlightAware ADS-B
Wed 11:38:31 PM 42.0464 -98.9539 1000° North 403 464 45,000  Level FlightAware ADS-B
Wed 11:39:01 PM 42.0299 -99.0320 1000° North 395 455 45,000  Level FlightAware ADS-B
Wed 11:39:32 PM 42.0133 -99.1103 1000° North 468 539 45,000  Level FlightAware ADS-B
Wed 11:40:02 PM 41.9963 -99.1887 1000° North 542 624 45,000  Level FlightAware ADS-B
Wed 11:40:38 PM 41.9762 -99.2824 1000° North 448 516 45,000  Level FlightAware ADS-B
Wed 11:41:11 PM 41.9648 -99.3681 1000° North 412 474 45,000  Level FlightAware ADS-B
Wed 11:41:41 PM 41.9583 -99.4491 1000° North 425 489 45,000  Level FlightAware ADS-B
Wed 11:42:13 PM 41.9523 -99.5324 1000° North 447 514 45,000  Level FlightAware ADS-B
Wed 11:42:44 PM 41.9465 -99.6153 1000° North 421 484 45,000  Level FlightAware ADS-B
Wed 11:43:14 PM 41.9398 -99.6951 1000° North 545 627 45,000  Level FlightAware ADS-B
Wed 11:43:45 PM 41.9334 -99.7753 1000° North 478 550 45,000  Level FlightAware ADS-B
Wed 11:44:15 PM 41.9283 -99.8554 1000° North 447 514 45,000  Level FlightAware ADS-B
Wed 11:45:35 PM 41.9103 -100.0497 1000° North 422 486 45,000  Level Denver Center
Wed 11:46:37 PM 41.9075 -100.1981 269° West 421 484 45,000  Level Denver Center
Wed 11:47:39 PM 41.9103 -100.3767 271° West 426 490 45,000  Level Denver Center
Wed 11:48:41 PM 41.9144 -100.5272 272° West 426 490 45,000  Level Denver Center
Wed 11:49:42 PM 41.9203 -100.7028 273° West 426 490 45,000  Level Denver Center
Wed 11:50:44 PM 41.9272 -100.8547 274° West 426 490 45,000  Level Denver Center
Wed 11:51:46 PM 41.9344 -101.0344 273° West 434 499 45,000  Level Denver Center
Wed 11:52:48 PM 41.9408 -101.1908 273° West 438 504 45,000  Level Denver Center
Wed 11:53:50 PM 41.9467 -101.3764 272° West 445 512 45,000  Level Denver Center
Wed 11:54:51 PM 41.9531 -101.5353 273° West 446 513 45,000  Level Denver Center
Wed 11:55:53 PM 41.9592 -101.6894 273° West 440 506 45,000  Level Denver Center
Thu 12:01:15 AM 41.9619 -102.5031 273° West 45,000  Level FlightAware ADS-B
Thu 12:01:59 AM 41.8981 -102.6504 240° Southwest 45,000  Level FlightAware ADS-B
Thu 12:02:44 AM 41.8560 -102.7481 240° Southwest 513 590 45,000  Level FlightAware ADS-B
Thu 12:03:45 AM 41.7992 -102.8839 241° Southwest 500 575 45,000 -2,152 Level FlightAware ADS-B
Thu 12:04:16 AM 41.7770 -102.9380 241° Southwest 492 566 41,700 -20,640 Descending FlightAware ADS-B
Thu 12:05:00 AM 41.7274 -103.0619 242° Southwest 480 552 19,200 1,207 Descending FlightAware ADS-B
Thu 12:07:00 AM 41.6148 -103.3401 241° Southwest 454 522 45,000 9,797 Climbing FlightAware ADS-B
Thu 12:07:38 AM 41.5750 -103.4372 241° Southwest 302 348 45,000  Level FlightAware ADS-B
Thu 12:08:24 AM 41.5340 -103.5357 241° Southwest 544 626 45,000  Level FlightAware ADS-B
Thu 12:08:54 AM 41.5026 -103.6098 241° Southwest 534 615 45,000  Level FlightAware ADS-B
Thu 12:09:31 AM 41.4746 -103.6768 241° Southwest 356 410 45,000  Level FlightAware ADS-B
Thu 12:09:36 AM 41.4775 -103.6699 61° Northeast 356 410 45,000 -5,100 Level FlightAware ADS-B
Thu 12:10:11 AM 41.4337 -103.7746 241° Southwest 495 570 41,600 -2,873 Descending FlightAware ADS-B
Thu 12:10:47 AM 41.3966 -103.8629 241° Southwest 327 376 41,600 2,757 Level FlightAware ADS-B
Thu 12:11:25 AM 41.3596 -103.9505 241° Southwest 457 526 45,000  Climbing FlightAware ADS-B
Thu 12:12:01 AM 41.3271 -104.0265 240° Southwest 463 533 41,600  Descending FlightAware ADS-B
Thu 12:12:31 AM 41.3005 -104.0890 241° Southwest 462 532 45,000 3,344 Climbing FlightAware ADS-B
Thu 12:13:02 AM 41.2957 -104.1001 60° Northeast 461 531 45,000  Level FlightAware ADS-B
Thu 12:13:22 AM 41.2507 -104.2050 240° Southwest 461 531 45,000  Level FlightAware ADS-B
Thu 12:14:00 AM 41.2143 -104.2893 240° Southwest 461 531 45,000  Level FlightAware ADS-B
Thu 12:14:33 AM 41.1843 -104.3585 240° Southwest 472 543 45,000 -5,122 Level FlightAware ADS-B
Thu 12:14:41 AM 41.1970 -104.3293 60° Northeast 571 657 41,500  Descending FlightAware ADS-B
Thu 12:15:02 AM 41.1530 -104.4301 240° Southwest 507 583 45,000 4,118 Climbing FlightAware ADS-B
Thu 12:15:32 AM 41.1259 -104.4915 240° Southwest 327 376 45,000 -3,541 Level FlightAware ADS-B
Thu 12:16:03 AM 41.0955 -104.5607 240° Southwest 783 901 41,400  Descending FlightAware ADS-B
Thu 12:16:52 AM 41.0669 -104.6257 240° Southwest 429 494 45,000 2,374 Climbing FlightAware ADS-B
Thu 12:17:34 AM 41.0155 -104.7415 240° Southwest 420 483 45,000  Level FlightAware ADS-B
Thu 12:17:53 AM 40.9879 -104.8036 239° Southwest 323 372 45,000 -4,909 Level FlightAware ADS-B
Thu 12:18:18 AM 40.9761 -104.8302 360° North 323 372 41,400  Descending FlightAware ADS-B
Thu 12:18:49 AM 40.9356 -104.9212 240° Southwest 467 537 45,000 3,927 Climbing FlightAware ADS-B (EHAM / AMS)
Thu 12:19:13 AM 40.9163 -104.9644 360° North 456 525 45,000  Level FlightAware ADS-B
Thu 12:19:30 AM 40.8763 -105.0537 239° Southwest 168 193 45,000 -4,696 Level FlightAware ADS-B
Thu 12:19:59 AM 40.8732 -105.0609 360° North 262 302 41,400  Descending FlightAware ADS-B
Thu 12:20:20 AM 40.8262 -105.1658 239° Southwest 399 459 45,000 1,612 Climbing FlightAware ADS-B (EHAM / AMS)
Thu 12:22:13 AM 40.7042 -105.4374 239° Southwest 313 360 45,000  Level FlightAware ADS-B
Thu 12:23:24 AM 40.6302 -105.6010 239° Southwest 477 549 45,000  Level FlightAware ADS-B
Thu 12:24:12 AM 40.5801 -105.7112 239° Southwest 477 549 45,000  Level FlightAware ADS-B (EHAM / AMS)
Thu 12:24:46 AM 40.5461 -105.7859 239° Southwest 415 478 45,000  Level FlightAware ADS-B
Thu 12:25:20 AM 40.5132 -105.8578 239° Southwest 107 123 45,000 -2,483 Level FlightAware ADS-B (EHAM / AMS)
Thu 12:26:13 AM 40.4648 -105.9631 238° Southwest 309 356 41,400  Descending FlightAware ADS-B (EHAM / AMS)
Thu 12:28:13 AM 40.3426 -106.2294 239° Southwest 423 487 45,000 1,029 Climbing FlightAware ADS-B (EHAM / AMS)
Thu 12:29:43 AM 40.2482 -106.4330 239° Southwest 487 560 45,000  Level FlightAware ADS-B (EHAM / AMS)
Thu 12:30:13 AM 40.2120 -106.5110 239° Southwest 401 461 45,000  Level FlightAware ADS-B (EHAM / AMS)
Thu 12:30:43 AM 40.1857 -106.5671 239° Southwest 459 528 45,000  Level FlightAware ADS-B (EHAM / AMS)
Thu 12:31:43 AM 40.1212 -106.7053 239° Southwest 411 473 45,000  Level FlightAware ADS-B (EHAM / AMS)
Thu 12:32:12 AM 40.0929 -106.7658 239° Southwest 297 342 45,000  Level FlightAware ADS-B (EHAM / AMS)
Thu 12:33:35 AM 40.0048 -106.9526 238° Southwest 500 575 45,000  Level FlightAware ADS-B
Thu 12:34:01 AM 40.0048 -106.9526 239° Southwest 635 731 45,000 -33,209 Level FlightAware ADS-B
Thu 12:34:18 AM 40.0144 -106.9320 59° Northeast 532 612 21,200 -30,383 Descending FlightAware ADS-B
Thu 12:34:48 AM 40.0144 -106.9320 59° Northeast 530 610 21,200  Level FlightAware ADS-B
Thu 12:36:34 AM 39.8148 -107.3524 238° Southwest 501 577 21,200  Level FlightAware ADS-B (KGUC)
Thu 12:37:04 AM 39.7926 -107.3984 239° Southwest 587 676 21,200  Level FlightAware ADS-B (EHAM / AMS)
Thu 12:38:18 AM 39.7072 -107.5768 239° Southwest 617 710 21,200  Level FlightAware ADS-B
Thu 12:38:41 AM 39.6859 -107.6207 238° Southwest 890 1024 21,200  Level FlightAware ADS-B (KGUC)
Thu 12:38:44 AM 39.6891 -107.6142 57° Northeast 890 1024 21,200  Level FlightAware ADS-B (EHAM / AMS)
Thu 12:39:04 AM 39.6859 -107.6207 237° Southwest 470 541 21,200  Level FlightAware ADS-B (KGUC)
Thu 12:39:18 AM 39.7072 -107.5768 360° North 360 414 21,200  Level FlightAware ADS-B
Thu 12:40:33 AM 39.5858 -107.8274 58° Northeast 309 356 21,200  Level FlightAware ADS-B
Thu 12:42:04 AM 39.4613 -108.0832 238° Southwest 618 711 21,200  Level FlightAware ADS-B (KGUC)
Thu 12:43:14 AM 39.4011 -108.2062 360° North 571 657 21,200 5,950 Level FlightAware ADS-B (KGUC)
Thu 12:46:04 AM 39.2153 -108.5827 237° Southwest 647 745 45,000 7,476 Climbing FlightAware ADS-B (KGUC)
Thu 12:46:25 AM 39.1877 -108.6383 237° Southwest 375 432 45,000  Level FlightAware ADS-B (EHAM / AMS)
Thu 12:46:34 AM 39.1824 -108.6493 238° Southwest 375 432 45,000  Level FlightAware ADS-B (KGUC)
Thu 12:47:04 AM 39.1402 -108.7343 237° Southwest 455 524 45,000  Level FlightAware ADS-B (KGUC)
Thu 12:48:14 AM 39.1402 -108.7343 57° Northeast 396 456 45,000  Level FlightAware ADS-B (KGUC)
Thu 12:49:34 AM 39.0210 -108.9737 57° Northeast 467 537 45,000  Level FlightAware ADS-B (KGUC)
Thu 12:50:04 AM 38.9723 -109.0711 237° Southwest 467 537 45,000  Level FlightAware ADS-B (KGUC)
Thu 12:50:22 AM 38.9736 -109.0685 56° Northeast 784 902 45,000  Level FlightAware ADS-B (EHAM / AMS)
Thu 12:52:35 AM 38.7843 -109.4439 237° Southwest 282 325 45,000  Level FlightAware ADS-B (EHAM / AMS)
Thu 12:53:14 AM 38.7501 -109.5110 237° Southwest 746 858 45,000  Level FlightAware ADS-B (KGUC)
Thu 12:53:44 AM 38.7067 -109.5966 237° Southwest 353 406 45,000  Level FlightAware ADS-B (KGUC)
Thu 12:54:30 AM 38.6575 -109.6934 237° Southwest 428 493 45,000  Level FlightAware ADS-B
Thu 12:54:44 AM 38.6789 -109.6513 57° Northeast 428 493 45,000 -36,811 Level FlightAware ADS-B (KGUC)
Thu 12:55:07 AM 38.6360 -109.7356 237° Southwest 498 573 22,300 -12,382 Descending FlightAware ADS-B
Thu 12:56:04 AM 38.5573 -109.8892 237° Southwest 22,300  Level FlightAware ADS-B (KGUC)
Thu 12:56:34 AM 38.5278 -109.9465 237° Southwest 736 847 22,300  Level FlightAware ADS-B (KGUC)
Thu 12:57:04 AM 38.4916 -110.0169 237° Southwest 376 433 22,300  Level FlightAware ADS-B (KGUC)
Thu 12:57:07 AM 38.4949 -110.0106 57° Northeast 419 482 22,300  Level FlightAware ADS-B
Thu 12:58:14 AM 38.4169 -110.1618 237° Southwest 464 534 22,300  Level FlightAware ADS-B (KGUC)
Thu 01:00:14 AM 38.2951 -110.3973 237° Southwest 462 532 22,300  Level FlightAware ADS-B (KGUC)
Thu 01:00:53 AM 38.2444 -110.4947 237° Southwest 375 432 22,300  Level FlightAware ADS-B (KGUC)
Thu 01:01:24 AM 38.2092 -110.5621 236° Southwest 501 577 22,300  Level FlightAware ADS-B (KGUC)
Thu 01:01:54 AM 38.1809 -110.6164 236° Southwest 504 580 22,300  Level FlightAware ADS-B (KGUC)
Thu 01:03:34 AM 38.0731 -110.8222 237° Southwest 504 580 22,300 5,871 Level FlightAware ADS-B (KGUC)
Thu 01:05:46 AM 37.9354 -111.0824 236° Southwest 344 396 45,000 7,094 Climbing FlightAware ADS-B
Thu 01:06:46 AM 37.8632 -111.2184 236° Southwest 287 330 45,000 -1,850 Level FlightAware ADS-B
Thu 01:07:46 AM 37.7952 -111.3456 236° Southwest 351 404 41,300  Descending FlightAware ADS-B
Thu 01:10:25 AM 38.0166 -110.9293 56° Northeast 339 390 45,000 -10 Climbing FlightAware ADS-B (KGUC)
Thu 01:15:51 AM 37.2557 -112.3400 236° Southwest 45,000 -511 Level FlightAware ADS-B
Thu 01:16:50 AM 37.1940 -112.4527 236° Southwest 45,000 -1,900 Level FlightAware ADS-B
Thu 01:17:51 AM 37.1114 -112.6023 235° Southwest 429 494 41,200 -1,884 Descending FlightAware ADS-B
Thu 01:18:51 AM 37.0443 -112.7223 235° Southwest 423 487 41,200 1,727 Level FlightAware ADS-B
Thu 01:20:03 AM 36.9817 -112.8351 235° Southwest 445 512 45,000 1,551 Climbing FlightAware ADS-B
Thu 01:21:18 AM 36.8752 -113.0238 235° Southwest 422 486 45,000  Level FlightAware ADS-B (KSGU)
Thu 01:22:09 AM 36.8186 -113.1235 235° Southwest 393 452 45,000  Level FlightAware ADS-B (KSGU)
Thu 01:22:45 AM 36.7769 -113.1969 235° Southwest 424 488 45,000 -3,455 Level FlightAware ADS-B (KSGU)
Thu 01:23:15 AM 36.7422 -113.2582 235° Southwest 454 522 41,200 -3,900 Descending FlightAware ADS-B (KSGU)
Thu 01:23:45 AM 36.7087 -113.3173 235° Southwest 454 522 41,100 -100 Descending FlightAware ADS-B (KSGU)
Thu 01:24:15 AM 36.6742 -113.3777 235° Southwest 419 482 41,100  Level FlightAware ADS-B (KSGU)
Thu 01:25:15 AM 36.6075 -113.4941 234° Southwest 422 486 41,100  Level FlightAware ADS-B (KSGU)
Thu 01:25:56 AM 36.5616 -113.5734 234° Southwest 430 495 41,100 2,600 Level FlightAware ADS-B (KSGU)
Thu 01:26:45 AM 36.5043 -113.6723 234° Southwest 310 357 45,000  Climbing FlightAware ADS-B (KSGU)
Thu 01:27:25 AM 36.4586 -113.7514 234° Southwest 383 441 41,100  Descending FlightAware ADS-B (KSGU)
Thu 01:27:59 AM 36.4047 -113.7986 234° Southwest 421 484 45,000 2,463 Climbing Los Angeles Center
Thu 01:29:00 AM 36.3372 -113.9167 235° Southwest 420 483 45,000  Level Los Angeles Center
Thu 01:30:01 AM 36.2681 -114.0353 234° Southwest 421 484 45,000  Level Los Angeles Center
Thu 01:31:02 AM 36.1994 -114.1531 234° Southwest 421 484 45,000 -146 Level Los Angeles Center
Thu 01:32:04 AM 36.1300 -114.2722 234° Southwest 422 486 44,700 -780 Descending Los Angeles Center
Thu 01:33:05 AM 36.0564 -114.3933 233° Southwest 434 499 43,400 -1,279 Descending Los Angeles Center
Thu 01:34:06 AM 35.9831 -114.5158 234° Southwest 438 504 42,100 -1,279 Descending Los Angeles Center
Thu 01:35:07 AM 35.9106 -114.6394 234° Southwest 439 505 40,800 -1,426 Descending Los Angeles Center
Thu 01:36:08 AM 35.8222 -114.7869 234° Southwest 440 506 39,200 -1,415 Descending Los Angeles Center
Thu 01:37:10 AM 35.7478 -114.9100 233° Southwest 442 509 37,900 -1,268 Descending Los Angeles Center
Thu 01:38:11 AM 35.6736 -115.0350 234° Southwest 445 512 36,600 -1,279 Descending Los Angeles Center
Thu 01:39:12 AM 35.5964 -115.1631 233° Southwest 457 526 35,300 -1,279 Descending Los Angeles Center
Thu 01:40:13 AM 35.5186 -115.2911 233° Southwest 461 531 34,000 -1,426 Descending Los Angeles Center
Thu 01:41:14 AM 35.4408 -115.4200 233° Southwest 463 533 32,400 -2,705 Descending Los Angeles Center
Thu 01:42:15 AM 35.3619 -115.5478 233° Southwest 465 535 28,500 -4,033 Descending Los Angeles Center
Thu 01:43:16 AM 35.2806 -115.6797 233° Southwest 463 533 24,200 1,881 Descending Los Angeles Center
Thu 01:48:47 AM 34.9706 -116.3514 233° Southwest 42,700 2,832 Climbing FlightAware ADS-B (KCRQ)
Thu 01:49:48 AM 34.9466 -116.4779 257° West 378 435 42,700  Level FlightAware ADS-B (KCRQ)
Thu 01:51:48 AM 34.8909 -116.7675 257° West 398 458 42,700 -6,233 Level FlightAware ADS-B (KCRQ)
Thu 01:52:48 AM 34.8656 -116.8968 257° West 395 455 24,000 -11,220 Descending FlightAware ADS-B (KCRQ)
Thu 01:53:28 AM 34.8473 -116.9905 257° West 386 444 24,000 9,300 Level FlightAware ADS-B (KFUL)
Thu 01:54:48 AM 34.8084 -117.1872 256° West 477 549 42,600 8,057 Climbing FlightAware ADS-B (KCRQ)
Thu 01:55:48 AM 34.7890 -117.2876 257° West 477 549 42,800 -10,100 Climbing FlightAware ADS-B (KCRQ)
Thu 01:56:48 AM 34.7576 -117.4559 257° West 480 552 22,400 -33 Descending FlightAware ADS-B (KCRQ)
Thu 01:58:48 AM 34.7054 -117.7304 257° West 410 472 42,700 -2,054 Climbing FlightAware ADS-B (KCRQ)
Thu 02:01:46 AM 34.6359 -118.0910 257° West 404 465 12,200 -6,329 Descending FlightAware ADS-B (KFUL)
Thu 02:04:16 AM 34.5863 -118.3458 257° West 311 358 8,100 -1,527 Descending FlightAware ADS-B (KFUL)
Thu 02:04:31 AM 34.5791 -118.3796 255° West 321 369 8,000 -100 Descending FlightAware ADS-B (KFUL)
Thu 02:05:16 AM 34.5664 -118.4364 255° West 302 348 8,000  Level FlightAware ADS-B (KFUL)
Thu 02:05:31 AM 34.5573 -118.4699 252° West 310 357 8,000 -600 Level FlightAware ADS-B (KFUL)
Thu 02:05:46 AM 34.5494 -118.4803 227° Southwest 342 394 7,700 30,500 Descending FlightAware ADS-B (KFUL)
Thu 02:06:31 AM 34.5024 -118.5066 205° Southwest 320 368 38,500 -1,600 Climbing FlightAware ADS-B (KFUL)
Thu 02:06:46 AM 34.4809 -118.5135 195° South 356 410 6,100 -19,429 Descending FlightAware ADS-B (KFUL)
Thu 02:08:16 AM 34.3977 -118.5155 178° South 246 283 4,500 -978 Descending FlightAware ADS-B (KFUL)
Thu 02:09:01 AM 34.3523 -118.5107 175° South 263 303 3,900 -900 Descending FlightAware ADS-B (KFUL)
Thu 02:09:16 AM 34.3439 -118.5099 175° South 263 303 3,600 33,100 Descending FlightAware ADS-B (KFUL)
Thu 02:10:01 AM 34.3228 -118.5085 177° South 227 261 37,000 -1,055 Climbing FlightAware ADS-B (KFUL)
Thu 02:10:47 AM 34.2789 -118.5054 177° South 197 227 2,000 -30,783 Descending FlightAware ADS-B (KFUL)
Thu 02:11:10 AM 34.2636 -118.5044 177° South 141 162 1,600 -1,043 Descending FlightAware ADS-B (KFUL)

Login

Don't have an account? Register now (free) for customized features, flight alerts, and more!